createdAt,value
2023-04-26T01:20:32.119Z,8.50
2023-04-26T01:22:59.916Z,8.23
2023-04-26T01:25:26.351Z,7.85
2023-04-26T01:27:52.830Z,9.15
2023-04-26T01:30:19.293Z,8.57
2023-04-26T01:32:45.772Z,8.07
2023-04-26T01:35:12.218Z,7.97
2023-04-26T01:37:38.718Z,9.35
2023-04-26T01:40:08.211Z,7.30
2023-04-26T01:42:34.678Z,8.77
2023-04-26T01:45:01.253Z,7.78
2023-04-26T01:47:27.737Z,9.07
2023-04-26T01:49:54.323Z,8.88
2023-04-26T01:52:21.459Z,8.30
2023-04-26T01:54:47.904Z,9.15
2023-04-26T01:57:15.655Z,8.40
2023-04-26T01:59:42.097Z,8.23
2023-04-26T02:02:08.592Z,8.55
2023-04-26T02:04:35.668Z,9.20
2023-04-26T02:07:02.175Z,7.22
2023-04-26T02:09:28.612Z,8.43
2023-04-26T02:11:55.271Z,9.27
2023-04-26T02:14:23.107Z,8.27
2023-04-26T02:16:49.571Z,8.07
2023-04-26T02:19:16.034Z,8.13
2023-04-26T02:21:53.014Z,6.75
2023-04-26T02:24:19.528Z,8.40
2023-04-26T02:26:46.016Z,8.93
2023-04-26T02:29:12.544Z,7.80
2023-04-26T02:31:40.432Z,8.93
2023-04-26T02:34:06.870Z,8.23
2023-04-26T02:36:33.415Z,8.00
2023-04-26T02:38:59.895Z,8.57
2023-04-26T02:41:26.366Z,7.65
2023-04-26T02:43:52.875Z,10.23
2023-04-26T02:46:19.341Z,9.20
2023-04-26T02:48:47.139Z,8.10
2023-04-26T02:51:13.609Z,9.18
2023-04-26T02:53:40.328Z,9.70
2023-04-26T02:56:07.094Z,8.95
2023-04-26T02:58:33.804Z,8.68
2023-04-26T03:01:01.582Z,8.65
2023-04-26T03:03:28.550Z,8.10
2023-04-26T03:05:56.644Z,7.88
2023-04-26T03:08:23.105Z,7.47
2023-04-26T03:10:49.539Z,8.88
2023-04-26T03:13:16.021Z,8.70
2023-04-26T03:15:44.669Z,10.10
2023-04-26T03:18:11.159Z,8.25
2023-04-26T03:20:37.619Z,8.52
2023-04-26T03:23:05.457Z,8.30
2023-04-26T03:25:32.925Z,9.75
2023-04-26T03:30:25.696Z,9.07
2023-04-26T03:32:53.064Z,9.00
2023-04-26T03:35:19.516Z,8.77
2023-04-26T03:37:45.958Z,8.80
2023-04-26T03:40:13.833Z,9.90
2023-04-26T03:42:40.453Z,10.25
2023-04-26T03:45:08.228Z,8.80
2023-04-26T03:47:34.728Z,9.57
2023-04-26T03:50:01.207Z,9.75
2023-04-26T03:52:27.627Z,10.40
2023-04-26T03:54:54.076Z,9.65
2023-04-26T03:57:21.961Z,10.15
2023-04-26T03:59:48.389Z,10.15
2023-04-26T04:02:14.917Z,9.77
2023-04-26T04:04:41.739Z,10.57
2023-04-26T04:07:08.338Z,10.50
2023-04-26T04:09:34.754Z,9.98
2023-04-26T04:12:01.917Z,11.48
2023-04-26T04:14:29.662Z,11.50
2023-04-26T04:16:56.089Z,10.95
2023-04-26T04:19:22.590Z,12.10
2023-04-26T04:21:49.040Z,12.52
2023-04-26T04:24:15.453Z,11.48
2023-04-26T04:26:41.896Z,12.27
2023-04-26T04:29:08.298Z,12.10
2023-04-26T04:31:36.363Z,10.88
2023-04-26T04:34:02.807Z,12.27
2023-04-26T04:36:29.251Z,12.38
2023-04-26T04:38:55.679Z,12.60
2023-04-26T04:41:22.129Z,12.98
2023-04-26T04:43:48.598Z,12.40
2023-04-26T04:46:15.107Z,13.70
2023-04-26T04:48:43.050Z,12.05
2023-04-26T04:51:09.489Z,11.95
2023-04-26T04:53:35.893Z,13.02
2023-04-26T04:56:02.310Z,13.00
2023-04-26T04:58:28.785Z,13.50
2023-04-26T05:00:55.174Z,14.13
2023-04-26T05:03:21.770Z,12.75
2023-04-26T05:05:49.591Z,12.60
2023-04-26T05:08:16.075Z,12.93
2023-04-26T05:10:42.478Z,15.65
2023-04-26T05:13:08.933Z,15.98
2023-04-26T05:15:35.355Z,12.40
2023-04-26T05:18:01.877Z,13.20
2023-04-26T05:20:28.337Z,13.23
2023-04-26T05:22:56.097Z,12.10
2023-04-26T05:25:22.897Z,16.60
2023-04-26T05:27:49.513Z,14.50
2023-04-26T05:30:15.936Z,14.20
2023-04-26T05:32:42.437Z,12.75
2023-04-26T05:35:09.312Z,12.85
2023-04-26T05:37:35.748Z,10.43
2023-04-26T05:40:04.283Z,12.85
2023-04-26T05:42:30.725Z,13.02
2023-04-26T05:44:57.959Z,12.18
2023-04-26T05:47:24.526Z,11.57
2023-04-26T05:49:50.950Z,11.47
2023-04-26T05:52:17.366Z,11.93
2023-04-26T05:54:43.777Z,11.82
2023-04-26T05:57:11.712Z,53.30
2023-04-26T05:59:38.177Z,44.60
2023-04-26T06:02:04.686Z,90.15
2023-04-26T06:04:31.329Z,10.30
2023-04-26T06:06:58.041Z,9.98
2023-04-26T06:09:24.555Z,10.73
2023-04-26T06:11:51.035Z,10.63
2023-04-26T06:14:30.004Z,10.65
2023-04-26T06:16:57.906Z,11.52
2023-04-26T06:19:24.453Z,10.82
2023-04-26T06:21:50.945Z,9.70
2023-04-26T06:24:17.410Z,9.10
2023-04-26T06:26:43.890Z,9.10
2023-04-26T06:29:10.338Z,8.98
2023-04-26T06:31:38.249Z,10.40
2023-04-26T06:34:04.772Z,9.57
2023-04-26T06:36:31.259Z,8.75
2023-04-26T06:38:57.661Z,7.95
2023-04-26T06:41:24.236Z,9.02
2023-04-26T06:43:50.983Z,9.05
2023-04-26T06:46:17.830Z,9.15
2023-04-26T06:48:45.563Z,8.07
2023-04-26T06:51:12.043Z,7.72
2023-04-26T06:53:38.586Z,7.68
2023-04-26T06:56:05.528Z,8.07
2023-04-26T06:58:32.087Z,7.63
2023-04-26T07:00:58.534Z,7.20
2023-04-26T07:03:25.087Z,6.78
2023-04-26T07:05:54.974Z,5.93
2023-04-26T07:08:21.377Z,6.57
2023-04-26T07:10:47.912Z,5.38
2023-04-26T07:13:14.332Z,5.35
2023-04-26T07:15:40.801Z,4.93
2023-04-26T07:18:07.271Z,5.72
2023-04-26T07:20:33.710Z,5.78
2023-04-26T07:23:01.492Z,4.55
2023-04-26T07:25:27.880Z,2.78
2023-04-26T07:27:54.310Z,3.75
2023-04-26T07:30:20.919Z,3.45
2023-04-26T07:32:47.501Z,3.17
2023-04-26T07:35:14.029Z,3.50
2023-04-26T07:37:40.458Z,2.90
2023-04-26T07:40:09.719Z,3.38
2023-04-26T07:42:36.207Z,3.67
2023-04-26T07:45:02.995Z,4.50
2023-04-26T07:47:29.489Z,3.83
2023-04-26T07:49:55.942Z,3.63
2023-04-26T07:52:22.588Z,3.42
2023-04-26T07:54:48.984Z,3.60
2023-04-26T07:57:16.799Z,3.70
2023-04-26T07:59:43.228Z,4.97
2023-04-26T08:02:10.113Z,4.00
2023-04-26T08:04:36.729Z,3.05
2023-04-26T08:07:03.353Z,4.37
2023-04-26T08:09:30.263Z,3.55
2023-04-26T08:11:56.840Z,3.38
2023-04-26T08:14:24.747Z,4.38
2023-04-26T08:16:51.213Z,3.53
2023-04-26T08:19:17.701Z,4.40
2023-04-26T08:21:44.129Z,3.95
2023-04-26T08:24:10.577Z,4.45
2023-04-26T08:26:37.012Z,4.05
2023-04-26T08:29:03.477Z,3.95
2023-04-26T08:31:31.427Z,3.55
2023-04-26T08:33:57.956Z,4.03
2023-04-26T08:36:24.380Z,3.58
2023-04-26T08:38:50.780Z,3.28
2023-04-26T08:41:22.115Z,3.88
2023-04-26T08:43:49.418Z,3.88
2023-04-26T08:46:19.509Z,4.05
2023-04-26T08:48:54.499Z,4.13
2023-04-26T08:51:22.071Z,4.05
2023-04-26T08:53:50.911Z,4.03
2023-04-26T08:56:17.512Z,4.40
2023-04-26T08:58:44.016Z,3.88
2023-04-26T09:01:15.005Z,3.88
2023-04-26T09:03:41.549Z,4.53
2023-04-26T09:06:10.324Z,3.93
2023-04-26T09:08:38.253Z,3.63
2023-04-26T09:11:04.853Z,3.90
2023-04-26T09:13:31.252Z,5.05
2023-04-26T09:15:57.835Z,4.13
2023-04-26T09:18:24.557Z,4.13
2023-04-26T09:21:13.136Z,4.57
2023-04-26T09:23:56.923Z,4.65
2023-04-26T09:26:23.396Z,4.13
2023-04-26T09:28:50.016Z,3.88
2023-04-26T09:31:37.587Z,4.23
2023-04-26T09:34:04.156Z,3.60
2023-04-26T09:36:31.974Z,4.00
2023-04-26T09:38:58.420Z,3.58
2023-04-26T09:41:41.463Z,4.80
2023-04-26T09:44:21.060Z,3.55
2023-04-26T09:46:58.082Z,3.45
2023-04-26T09:49:26.075Z,4.15
2023-04-26T09:52:01.991Z,3.92
2023-04-26T09:54:38.881Z,4.15
2023-04-26T09:57:05.339Z,4.45
2023-04-26T09:59:39.716Z,3.78
2023-04-26T10:02:16.784Z,4.78
2023-04-26T10:04:45.688Z,4.88
2023-04-26T10:07:14.569Z,5.65
2023-04-26T10:09:41.435Z,4.05
2023-04-26T10:12:09.123Z,4.28
2023-04-26T10:14:36.184Z,4.43
2023-04-26T10:17:03.729Z,3.95
2023-04-26T10:22:01.414Z,5.65
2023-04-26T10:24:29.418Z,4.10
2023-04-26T10:26:56.296Z,3.63
2023-04-26T10:29:23.934Z,4.68
2023-04-26T10:32:06.832Z,3.78
2023-04-26T10:34:34.783Z,4.10
2023-04-26T10:37:11.267Z,3.83
2023-04-26T10:39:40.275Z,3.90
2023-04-26T10:42:25.553Z,3.90
2023-04-26T10:44:53.075Z,3.60
2023-04-26T10:47:24.402Z,4.05
2023-04-26T10:49:50.959Z,3.83
2023-04-26T10:52:18.569Z,4.47
2023-04-26T10:54:53.940Z,4.15
2023-04-26T10:57:21.195Z,3.95
2023-04-26T11:00:25.100Z,4.10
2023-04-26T11:02:56.959Z,4.03
2023-04-26T11:05:34.140Z,4.00
2023-04-26T11:08:04.759Z,4.72
2023-04-26T11:10:33.303Z,3.80
2023-04-26T11:13:01.726Z,3.92
2023-04-26T11:17:55.101Z,3.47
2023-04-26T11:20:21.605Z,3.35
2023-04-26T11:22:48.090Z,4.05
2023-04-26T11:25:14.788Z,3.28
2023-04-26T11:27:44.246Z,3.93
2023-04-26T11:30:12.272Z,3.08
2023-04-26T11:32:38.763Z,2.85
2023-04-26T11:35:06.024Z,3.15
2023-04-26T11:37:34.105Z,3.45
2023-04-26T11:40:00.568Z,4.15
2023-04-26T11:42:27.022Z,3.88
2023-04-26T11:44:56.948Z,3.72
2023-04-26T11:47:23.593Z,3.55
2023-04-26T11:49:50.364Z,3.77
2023-04-26T11:52:16.960Z,3.47
2023-04-26T11:54:43.393Z,3.35
2023-04-26T11:57:15.364Z,3.03
2023-04-26T11:59:43.485Z,2.83
2023-04-26T12:02:11.877Z,3.40
2023-04-26T12:04:38.948Z,2.65
2023-04-26T12:07:05.573Z,2.65
2023-04-26T12:09:32.160Z,3.30
2023-04-26T12:11:59.174Z,3.87
2023-04-26T12:14:30.900Z,3.42
2023-04-26T12:16:59.244Z,2.70
2023-04-26T12:19:27.205Z,3.38
2023-04-26T12:21:53.667Z,2.72
2023-04-26T12:24:22.592Z,2.92
2023-04-26T12:26:49.087Z,2.85
2023-04-26T12:29:15.586Z,3.03
2023-04-26T12:31:42.603Z,3.53
2023-04-26T12:34:09.119Z,2.83
2023-04-26T12:36:36.929Z,3.00
2023-04-26T12:39:03.448Z,2.83
2023-04-26T12:41:29.901Z,3.75
2023-04-26T12:43:56.905Z,2.95
2023-04-26T12:46:23.379Z,3.03
2023-04-26T12:48:49.803Z,3.05
2023-04-26T12:51:16.219Z,3.30
2023-04-26T12:53:44.052Z,2.78
2023-04-26T12:56:10.549Z,2.75
2023-04-26T12:58:37.035Z,2.63
2023-04-26T13:01:03.643Z,2.80
2023-04-26T13:03:30.401Z,3.33
2023-04-26T13:05:57.022Z,2.85
2023-04-26T13:08:23.507Z,2.65
2023-04-26T13:10:51.267Z,2.60
2023-04-26T13:13:18.284Z,2.28
2023-04-26T13:15:44.800Z,2.72
2023-04-26T13:18:11.394Z,2.47
2023-04-26T13:20:37.834Z,1.83
2023-04-26T13:23:04.282Z,1.90
2023-04-26T13:25:30.730Z,2.23
2023-04-26T13:27:58.605Z,2.07
2023-04-26T13:30:25.091Z,2.75
2023-04-26T13:32:51.556Z,2.27
2023-04-26T13:35:18.199Z,2.17
2023-04-26T13:37:44.636Z,2.80
2023-04-26T13:40:11.840Z,2.15
2023-04-26T13:42:38.928Z,2.60
2023-04-26T13:45:07.917Z,2.90
2023-04-26T13:47:34.499Z,2.65
2023-04-26T13:50:00.969Z,2.30
2023-04-26T13:52:27.568Z,2.72
2023-04-26T13:54:54.030Z,3.10
2023-04-26T13:57:20.658Z,2.53
2023-04-26T13:59:47.079Z,2.20
2023-04-26T14:02:15.180Z,2.35
2023-04-26T14:04:42.143Z,2.45
2023-04-26T14:07:09.597Z,1.95
2023-04-26T14:12:08.572Z,2.10
2023-04-26T14:14:35.487Z,2.00
2023-04-26T14:17:01.935Z,2.50
2023-04-26T14:19:29.779Z,2.40
2023-04-26T14:21:56.236Z,2.28
2023-04-26T14:24:22.699Z,2.37
2023-04-26T14:26:49.185Z,2.28
2023-04-26T14:29:15.616Z,2.13
2023-04-26T14:31:42.094Z,2.10
2023-04-26T14:34:08.566Z,2.13
2023-04-26T14:36:36.409Z,2.30
2023-04-26T14:39:02.829Z,2.28
2023-04-26T14:41:29.278Z,2.58
2023-04-26T14:43:55.722Z,1.85
2023-04-26T14:46:22.179Z,2.08
2023-04-26T14:48:48.653Z,2.10
2023-04-26T14:51:15.096Z,2.13
2023-04-26T14:53:42.851Z,2.05
2023-04-26T14:56:09.486Z,2.30
2023-04-26T14:58:35.956Z,2.53
2023-04-26T15:01:02.567Z,2.83
2023-04-26T15:03:29.365Z,2.33
2023-04-26T15:05:55.915Z,2.30
2023-04-26T15:08:22.493Z,2.50
2023-04-26T15:10:50.263Z,2.37
2023-04-26T15:13:16.928Z,2.38
2023-04-26T15:15:43.496Z,2.47
2023-04-26T15:18:10.039Z,2.50
2023-04-26T15:20:38.882Z,2.50
2023-04-26T15:23:05.305Z,2.15
2023-04-26T15:25:34.565Z,2.00
2023-04-26T15:28:02.350Z,2.50
2023-04-26T15:30:28.790Z,2.38
2023-04-26T15:32:55.268Z,1.52
2023-04-26T15:35:21.797Z,2.33
2023-04-26T15:37:48.230Z,2.85
2023-04-26T15:40:14.648Z,2.70
2023-04-26T15:42:41.073Z,1.90
2023-04-26T15:45:09.802Z,2.00
2023-04-26T15:47:36.317Z,2.08
2023-04-26T15:50:03.272Z,2.43
2023-04-26T15:52:29.754Z,2.20
2023-04-26T15:54:56.169Z,2.28
2023-04-26T15:57:22.616Z,2.33
2023-04-26T15:59:49.485Z,2.30
2023-04-26T16:02:17.353Z,2.40
2023-04-26T16:04:43.937Z,2.10
2023-04-26T16:07:10.422Z,2.63
2023-04-26T16:12:04.771Z,2.47
2023-04-26T16:14:32.260Z,2.13
2023-04-26T16:19:29.384Z,2.35
2023-04-26T16:21:55.820Z,1.90
2023-04-26T16:24:22.261Z,2.55
2023-04-26T16:26:48.709Z,2.55
2023-04-26T16:29:15.100Z,2.22
2023-04-26T16:31:41.715Z,3.00
2023-04-26T16:34:08.122Z,2.13
2023-04-26T16:36:36.209Z,3.55
2023-04-26T16:39:02.635Z,3.45
2023-04-26T16:41:29.100Z,4.00
2023-04-26T16:43:55.550Z,4.10
2023-04-26T16:46:22.109Z,3.33
2023-04-26T16:48:48.592Z,3.90
2023-04-26T16:51:15.026Z,3.42
2023-04-26T16:53:42.740Z,3.75
2023-04-26T16:56:09.204Z,3.40
2023-04-26T16:58:35.615Z,3.60
2023-04-26T17:01:02.087Z,3.05
2023-04-26T17:03:28.912Z,3.00
2023-04-26T17:05:55.471Z,3.97
2023-04-26T17:08:21.994Z,3.28
2023-04-26T17:10:49.845Z,3.70
2023-04-26T17:13:16.288Z,3.63
2023-04-26T17:15:43.142Z,2.95
2023-04-26T17:18:09.832Z,2.95
2023-04-26T17:20:36.507Z,3.78
2023-04-26T17:23:03.762Z,3.45
2023-04-26T17:25:30.494Z,3.80
2023-04-26T17:27:58.344Z,4.00
2023-04-26T17:30:24.809Z,3.80
2023-04-26T17:32:51.284Z,3.15
2023-04-26T17:35:17.888Z,4.13
2023-04-26T17:37:44.367Z,3.30
2023-04-26T17:40:11.566Z,3.53
2023-04-26T17:42:38.002Z,3.95
2023-04-26T17:45:07.504Z,4.10
2023-04-26T17:47:34.012Z,4.38
2023-04-26T17:50:00.503Z,4.05
2023-04-26T17:52:27.065Z,3.28
2023-04-26T17:54:53.957Z,3.13
2023-04-26T17:57:20.416Z,4.15
2023-04-26T17:59:46.808Z,3.80
2023-04-26T18:02:14.670Z,3.53
2023-04-26T18:04:41.358Z,3.17
2023-04-26T18:07:07.976Z,3.40
2023-04-26T18:09:34.460Z,3.75
2023-04-26T18:12:00.876Z,3.33
2023-04-26T18:14:27.267Z,47.78
2023-04-26T18:16:53.753Z,84.05
2023-04-26T18:19:21.649Z,3.83
2023-04-26T18:21:48.092Z,3.38
2023-04-26T18:24:14.481Z,4.10
2023-04-26T18:26:41.245Z,999.90
2023-04-26T18:29:07.655Z,999.90
2023-04-26T18:31:34.144Z,999.90
2023-04-26T18:34:00.627Z,999.90
2023-04-26T18:36:28.413Z,999.90
2023-04-26T18:38:54.920Z,999.90
2023-04-26T18:41:21.479Z,421.25
2023-04-26T18:43:47.921Z,999.90
2023-04-26T18:46:14.386Z,999.90
2023-04-26T18:48:40.984Z,99.63
2023-04-26T18:51:07.556Z,4.35
2023-04-26T18:53:35.469Z,4.07
2023-04-26T18:56:01.983Z,3.78
2023-04-26T18:58:28.432Z,3.88
2023-04-26T19:00:54.837Z,4.10
2023-04-26T19:03:21.719Z,4.53
2023-04-26T19:05:48.569Z,4.95
2023-04-26T19:08:15.110Z,4.60
2023-04-26T19:10:42.934Z,4.07
2023-04-26T19:13:09.378Z,3.53
2023-04-26T19:15:35.833Z,3.47
2023-04-26T19:18:02.425Z,2.25
2023-04-26T19:20:28.966Z,3.67
2023-04-26T19:22:55.471Z,3.70
2023-04-26T19:25:22.044Z,3.58
2023-04-26T19:27:49.911Z,3.28
2023-04-26T19:30:16.320Z,3.05
2023-04-26T19:32:42.819Z,4.07
2023-04-26T19:35:09.511Z,3.60
2023-04-26T19:37:35.983Z,3.33
2023-04-26T19:40:02.561Z,3.50
2023-04-26T19:42:28.987Z,3.60
2023-04-26T19:44:56.915Z,2.95
2023-04-26T19:47:23.399Z,3.05
2023-04-26T19:49:49.806Z,3.70
2023-04-26T19:52:16.222Z,3.80
2023-04-26T19:54:42.615Z,4.25
2023-04-26T19:57:09.041Z,3.50
2023-04-26T19:59:35.472Z,3.47
2023-04-26T20:02:03.267Z,3.05
2023-04-26T20:04:29.770Z,3.25
2023-04-26T20:06:56.226Z,3.30
2023-04-26T20:09:22.660Z,3.92
2023-04-26T20:11:49.110Z,3.30
2023-04-26T20:14:15.541Z,3.75
2023-04-26T20:16:42.041Z,3.70
2023-04-26T20:19:10.188Z,3.00
2023-04-26T20:21:36.833Z,3.17
2023-04-26T20:24:03.495Z,3.33
2023-04-26T20:26:29.951Z,3.67
2023-04-26T20:28:56.355Z,3.42
2023-04-26T20:31:22.889Z,4.25
2023-04-26T20:33:49.344Z,3.88
2023-04-26T20:36:17.106Z,3.78
2023-04-26T20:38:43.501Z,2.90
2023-04-26T20:41:09.989Z,3.30
2023-04-26T20:43:36.448Z,3.33
2023-04-26T20:46:02.921Z,3.42
2023-04-26T20:48:29.438Z,3.38
2023-04-26T20:50:55.855Z,3.28
2023-04-26T20:53:23.707Z,3.72
2023-04-26T20:55:51.642Z,3.22
2023-04-26T20:58:18.094Z,3.53
2023-04-26T21:00:44.508Z,3.70
2023-04-26T21:03:11.038Z,4.30
2023-04-26T21:05:37.475Z,3.80
2023-04-26T21:08:03.936Z,3.60
2023-04-26T21:10:31.794Z,4.07
2023-04-26T21:12:58.233Z,3.97
2023-04-26T21:15:24.702Z,4.32
2023-04-26T21:17:51.178Z,3.83
2023-04-26T21:20:17.740Z,4.00
2023-04-26T21:22:44.274Z,4.13
2023-04-26T21:25:10.696Z,4.28
2023-04-26T21:27:38.559Z,3.67
2023-04-26T21:30:06.423Z,3.67
2023-04-26T21:32:32.847Z,3.30
2023-04-26T21:34:59.285Z,4.80
2023-04-26T21:37:26.063Z,4.22
2023-04-26T21:39:52.900Z,4.15
2023-04-26T21:42:19.655Z,3.88
2023-04-26T21:44:47.797Z,4.15
2023-04-26T21:47:14.244Z,4.07
2023-04-26T21:49:40.648Z,3.78
2023-04-26T21:52:07.078Z,3.63
2023-04-26T21:54:33.540Z,4.07
2023-04-26T21:56:59.970Z,3.95
2023-04-26T21:59:26.354Z,3.97
2023-04-26T22:01:54.173Z,5.07
2023-04-26T22:04:20.733Z,3.40
2023-04-26T22:06:47.335Z,4.27
2023-04-26T22:09:13.834Z,4.05
2023-04-26T22:13:06.799Z,3.47
2023-04-26T22:15:33.231Z,3.63
2023-04-26T22:17:59.802Z,3.47
2023-04-26T22:20:26.318Z,3.92
2023-04-26T22:22:52.770Z,4.53
2023-04-26T22:25:19.239Z,4.10
2023-04-26T22:27:45.665Z,4.03
2023-04-26T22:30:25.002Z,4.65
2023-04-26T22:32:53.424Z,4.40
2023-04-26T22:35:20.247Z,4.20
2023-04-26T22:37:46.987Z,4.00
2023-04-26T22:40:13.726Z,5.10
2023-04-26T22:42:40.228Z,3.88
2023-04-26T22:45:08.330Z,3.72
2023-04-26T22:47:36.264Z,3.95
2023-04-26T22:50:02.789Z,4.07
2023-04-26T22:52:31.741Z,4.32
2023-04-26T22:54:58.770Z,4.35
2023-04-26T22:57:25.240Z,4.38
2023-04-26T22:59:51.671Z,4.80
2023-04-26T23:02:18.185Z,3.85
2023-04-26T23:04:46.359Z,3.67
2023-04-26T23:07:12.871Z,3.15
2023-04-26T23:09:39.423Z,4.00
2023-04-26T23:12:05.976Z,4.07
2023-04-26T23:14:32.431Z,3.38
2023-04-26T23:16:59.012Z,3.85
2023-04-26T23:19:25.581Z,3.08
2023-04-26T23:21:53.524Z,3.67
2023-04-26T23:24:19.952Z,4.10
2023-04-26T23:26:46.424Z,3.75
2023-04-26T23:29:13.026Z,4.97
2023-04-26T23:31:39.694Z,4.20
2023-04-26T23:34:06.150Z,4.72
2023-04-26T23:36:32.589Z,5.05
2023-04-26T23:39:00.331Z,4.28
2023-04-26T23:41:26.813Z,3.92
2023-04-26T23:43:53.227Z,4.57
2023-04-26T23:46:19.713Z,4.72
2023-04-26T23:48:46.163Z,4.00
2023-04-26T23:51:12.592Z,3.72
2023-04-26T23:53:38.967Z,4.90
2023-04-26T23:56:07.275Z,5.22
2023-04-26T23:58:33.882Z,4.13
